sensor_id;sensor_type;location;lat;lon;timestamp;pressure;altitude;pressure_sealevel;temperature;humidity
57024;BME280;42916;54.346;18.562;2022-08-20T00:00:53;99878.91;;;25.28;65.67
57024;BME280;42916;54.346;18.562;2022-08-20T00:03:26;99876.84;;;25.27;65.71
57024;BME280;42916;54.346;18.562;2022-08-20T00:06:02;99875.73;;;25.27;65.72
57024;BME280;42916;54.346;18.562;2022-08-20T00:08:29;99880.17;;;25.27;65.69
57024;BME280;42916;54.346;18.562;2022-08-20T00:10:57;99879.87;;;25.27;65.73
57024;BME280;42916;54.346;18.562;2022-08-20T00:13:29;99877.06;;;25.27;65.74
57024;BME280;42916;54.346;18.562;2022-08-20T00:15:55;99879.54;;;25.27;65.84
57024;BME280;42916;54.346;18.562;2022-08-20T00:18:22;99881.37;;;25.27;65.80
57024;BME280;42916;54.346;18.562;2022-08-20T00:20:51;99882.54;;;25.26;65.93
57024;BME280;42916;54.346;18.562;2022-08-20T00:23:19;99881.96;;;25.25;66.04
57024;BME280;42916;54.346;18.562;2022-08-20T00:25:45;99885.96;;;25.24;66.10
57024;BME280;42916;54.346;18.562;2022-08-20T00:28:12;99887.80;;;25.24;66.35
57024;BME280;42916;54.346;18.562;2022-08-20T00:30:41;99888.89;;;25.23;66.34
57024;BME280;42916;54.346;18.562;2022-08-20T00:33:12;99891.23;;;25.21;66.40
57024;BME280;42916;54.346;18.562;2022-08-20T00:35:41;99893.77;;;25.20;66.51
57024;BME280;42916;54.346;18.562;2022-08-20T00:38:08;99886.40;;;25.18;66.68
57024;BME280;42916;54.346;18.562;2022-08-20T00:40:38;99878.35;;;25.16;66.75
57024;BME280;42916;54.346;18.562;2022-08-20T00:43:12;99867.71;;;25.17;66.90
57024;BME280;42916;54.346;18.562;2022-08-20T00:45:48;99869.15;;;25.18;67.06
57024;BME280;42916;54.346;18.562;2022-08-20T00:48:15;99873.52;;;25.17;67.23
57024;BME280;42916;54.346;18.562;2022-08-20T00:50:41;99885.62;;;25.18;67.27
57024;BME280;42916;54.346;18.562;2022-08-20T00:53:08;99891.42;;;25.18;67.51
57024;BME280;42916;54.346;18.562;2022-08-20T00:55:35;99894.98;;;25.17;67.56
57024;BME280;42916;54.346;18.562;2022-08-20T00:58:05;99892.36;;;25.17;67.64
57024;BME280;42916;54.346;18.562;2022-08-20T01:00:42;99895.69;;;25.16;67.84
57024;BME280;42916;54.346;18.562;2022-08-20T01:03:11;99894.91;;;25.14;67.89
57024;BME280;42916;54.346;18.562;2022-08-20T01:05:43;99900.89;;;25.10;68.05
57024;BME280;42916;54.346;18.562;2022-08-20T01:08:10;99893.40;;;25.06;68.42
57024;BME280;42916;54.346;18.562;2022-08-20T01:10:40;99877.58;;;25.02;68.66
57024;BME280;42916;54.346;18.562;2022-08-20T01:13:08;99872.49;;;24.98;69.01
57024;BME280;42916;54.346;18.562;2022-08-20T01:15:41;99863.27;;;24.94;69.30
57024;BME280;42916;54.346;18.562;2022-08-20T01:18:14;99862.96;;;24.90;69.48
57024;BME280;42916;54.346;18.562;2022-08-20T01:20:48;99863.37;;;24.87;69.94
57024;BME280;42916;54.346;18.562;2022-08-20T01:23:39;99858.45;;;24.84;70.33
57024;BME280;42916;54.346;18.562;2022-08-20T01:26:25;99862.79;;;24.82;70.49
57024;BME280;42916;54.346;18.562;2022-08-20T01:28:56;99857.84;;;24.81;70.91
57024;BME280;42916;54.346;18.562;2022-08-20T01:31:25;99860.41;;;24.79;70.95
57024;BME280;42916;54.346;18.562;2022-08-20T01:33:54;99859.09;;;24.77;71.22
57024;BME280;42916;54.346;18.562;2022-08-20T01:36:25;99859.66;;;24.74;71.49
57024;BME280;42916;54.346;18.562;2022-08-20T01:38:51;99858.21;;;24.69;71.70
57024;BME280;42916;54.346;18.562;2022-08-20T01:43:48;99855.77;;;24.63;72.16
57024;BME280;42916;54.346;18.562;2022-08-20T01:46:15;99853.02;;;24.61;72.44
57024;BME280;42916;54.346;18.562;2022-08-20T01:48:43;99858.92;;;24.58;72.78
57024;BME280;42916;54.346;18.562;2022-08-20T01:51:22;99864.98;;;24.56;73.20
57024;BME280;42916;54.346;18.562;2022-08-20T01:53:52;99868.13;;;24.52;73.87
57024;BME280;42916;54.346;18.562;2022-08-20T01:56:25;99860.90;;;24.40;74.56
57024;BME280;42916;54.346;18.562;2022-08-20T01:58:54;99864.63;;;24.27;75.40
57024;BME280;42916;54.346;18.562;2022-08-20T02:03:49;99878.20;;;24.10;76.82
57024;BME280;42916;54.346;18.562;2022-08-20T02:06:15;99880.94;;;24.02;77.41
57024;BME280;42916;54.346;18.562;2022-08-20T02:08:41;99884.91;;;23.96;78.71
57024;BME280;42916;54.346;18.562;2022-08-20T02:11:09;99887.19;;;23.88;79.75
57024;BME280;42916;54.346;18.562;2022-08-20T02:13:35;99882.48;;;23.79;81.09
57024;BME280;42916;54.346;18.562;2022-08-20T02:16:01;99882.52;;;23.72;82.42
57024;BME280;42916;54.346;18.562;2022-08-20T02:18:27;99893.73;;;23.66;82.95
57024;BME280;42916;54.346;18.562;2022-08-20T02:20:53;99890.41;;;23.61;82.82
57024;BME280;42916;54.346;18.562;2022-08-20T02:23:19;99883.30;;;23.59;82.93
57024;BME280;42916;54.346;18.562;2022-08-20T02:25:46;99882.58;;;23.59;83.13
57024;BME280;42916;54.346;18.562;2022-08-20T02:28:14;99876.41;;;23.56;83.68
57024;BME280;42916;54.346;18.562;2022-08-20T02:30:42;99876.98;;;23.54;84.40
57024;BME280;42916;54.346;18.562;2022-08-20T02:33:11;99877.42;;;23.50;85.14
57024;BME280;42916;54.346;18.562;2022-08-20T02:35:39;99880.91;;;23.44;85.10
57024;BME280;42916;54.346;18.562;2022-08-20T02:38:08;99883.17;;;23.37;85.70
57024;BME280;42916;54.346;18.562;2022-08-20T02:40:35;99888.86;;;23.33;86.45
57024;BME280;42916;54.346;18.562;2022-08-20T02:43:02;99891.09;;;23.30;87.56
57024;BME280;42916;54.346;18.562;2022-08-20T02:45:31;99895.57;;;23.26;87.88
57024;BME280;42916;54.346;18.562;2022-08-20T02:48:10;99897.17;;;23.24;88.30
57024;BME280;42916;54.346;18.562;2022-08-20T02:50:36;99900.98;;;23.19;88.78
57024;BME280;42916;54.346;18.562;2022-08-20T02:53:02;99901.41;;;23.14;88.79
57024;BME280;42916;54.346;18.562;2022-08-20T02:55:28;99909.40;;;23.11;89.01
57024;BME280;42916;54.346;18.562;2022-08-20T02:57:55;99915.17;;;23.07;89.14
57024;BME280;42916;54.346;18.562;2022-08-20T03:00:22;99920.02;;;23.08;90.13
57024;BME280;42916;54.346;18.562;2022-08-20T03:02:48;99917.82;;;23.07;90.61
57024;BME280;42916;54.346;18.562;2022-08-20T03:05:15;99918.35;;;23.01;91.08
57024;BME280;42916;54.346;18.562;2022-08-20T03:07:47;99915.40;;;22.98;91.78
57024;BME280;42916;54.346;18.562;2022-08-20T03:10:13;99919.48;;;22.99;92.35
57024;BME280;42916;54.346;18.562;2022-08-20T03:12:40;99920.77;;;22.99;92.80
57024;BME280;42916;54.346;18.562;2022-08-20T03:15:08;99924.66;;;23.00;93.22
57024;BME280;42916;54.346;18.562;2022-08-20T03:17:35;99925.45;;;23.00;93.63
57024;BME280;42916;54.346;18.562;2022-08-20T03:20:04;99925.95;;;22.98;93.89
57024;BME280;42916;54.346;18.562;2022-08-20T03:22:30;99926.40;;;22.94;94.32
57024;BME280;42916;54.346;18.562;2022-08-20T03:24:56;99935.35;;;22.91;94.75
57024;BME280;42916;54.346;18.562;2022-08-20T03:27:23;99934.94;;;22.90;95.01
57024;BME280;42916;54.346;18.562;2022-08-20T03:29:49;99939.95;;;22.86;95.11
57024;BME280;42916;54.346;18.562;2022-08-20T03:32:15;99943.33;;;22.85;95.56
57024;BME280;42916;54.346;18.562;2022-08-20T03:34:41;99945.45;;;22.87;95.71
57024;BME280;42916;54.346;18.562;2022-08-20T03:37:07;99951.55;;;22.90;96.19
57024;BME280;42916;54.346;18.562;2022-08-20T03:39:34;99953.52;;;22.92;96.28
57024;BME280;42916;54.346;18.562;2022-08-20T03:42:00;99953.53;;;22.95;96.42
57024;BME280;42916;54.346;18.562;2022-08-20T03:44:27;99949.75;;;22.96;96.46
57024;BME280;42916;54.346;18.562;2022-08-20T03:46:52;99950.71;;;22.99;96.48
57024;BME280;42916;54.346;18.562;2022-08-20T03:49:18;99958.63;;;23.01;96.58
57024;BME280;42916;54.346;18.562;2022-08-20T03:51:44;99958.06;;;23.01;96.71
57024;BME280;42916;54.346;18.562;2022-08-20T03:54:10;99954.69;;;22.97;96.61
57024;BME280;42916;54.346;18.562;2022-08-20T03:56:36;99958.81;;;22.94;96.68
57024;BME280;42916;54.346;18.562;2022-08-20T03:59:02;99962.02;;;22.96;96.86
57024;BME280;42916;54.346;18.562;2022-08-20T04:01:28;99968.95;;;22.97;96.65
57024;BME280;42916;54.346;18.562;2022-08-20T04:03:54;99974.62;;;22.96;96.37
57024;BME280;42916;54.346;18.562;2022-08-20T04:06:24;99965.27;;;22.93;96.26
57024;BME280;42916;54.346;18.562;2022-08-20T04:08:50;99965.72;;;22.91;96.08
57024;BME280;42916;54.346;18.562;2022-08-20T04:11:18;99969.99;;;22.91;95.72
57024;BME280;42916;54.346;18.562;2022-08-20T04:13:44;99978.39;;;22.91;95.53
57024;BME280;42916;54.346;18.562;2022-08-20T04:16:10;99974.17;;;22.91;95.37
57024;BME280;42916;54.346;18.562;2022-08-20T04:18:36;99975.86;;;22.91;95.29
57024;BME280;42916;54.346;18.562;2022-08-20T04:21:03;99980.34;;;22.93;95.19
57024;BME280;42916;54.346;18.562;2022-08-20T04:23:30;99982.46;;;22.95;95.13
57024;BME280;42916;54.346;18.562;2022-08-20T04:25:57;99986.69;;;22.99;95.02
57024;BME280;42916;54.346;18.562;2022-08-20T04:28:24;99985.50;;;23.01;94.80
57024;BME280;42916;54.346;18.562;2022-08-20T04:30:53;99989.61;;;23.04;94.71
57024;BME280;42916;54.346;18.562;2022-08-20T04:33:20;99989.58;;;23.05;94.78
57024;BME280;42916;54.346;18.562;2022-08-20T04:35:46;99992.02;;;23.06;94.49
57024;BME280;42916;54.346;18.562;2022-08-20T04:38:14;99990.20;;;23.06;94.38
57024;BME280;42916;54.346;18.562;2022-08-20T04:40:41;99991.01;;;23.07;94.32
57024;BME280;42916;54.346;18.562;2022-08-20T04:43:28;99988.15;;;23.07;94.42
57024;BME280;42916;54.346;18.562;2022-08-20T04:45:56;99981.90;;;23.05;94.45
57024;BME280;42916;54.346;18.562;2022-08-20T04:48:24;99981.78;;;23.04;94.73
57024;BME280;42916;54.346;18.562;2022-08-20T04:50:52;99979.29;;;23.05;95.02
57024;BME280;42916;54.346;18.562;2022-08-20T04:53:20;99978.14;;;23.09;95.00
57024;BME280;42916;54.346;18.562;2022-08-20T04:55:47;99979.45;;;23.15;94.97
57024;BME280;42916;54.346;18.562;2022-08-20T04:58:26;99972.78;;;23.20;94.80
57024;BME280;42916;54.346;18.562;2022-08-20T05:00:56;99969.69;;;23.23;94.68
57024;BME280;42916;54.346;18.562;2022-08-20T05:03:22;99970.27;;;23.24;94.75
57024;BME280;42916;54.346;18.562;2022-08-20T05:05:49;99970.10;;;23.26;94.77
57024;BME280;42916;54.346;18.562;2022-08-20T05:08:17;99974.70;;;23.31;95.01
57024;BME280;42916;54.346;18.562;2022-08-20T05:10:44;99976.02;;;23.37;94.92
57024;BME280;42916;54.346;18.562;2022-08-20T05:13:10;99980.32;;;23.40;94.90
57024;BME280;42916;54.346;18.562;2022-08-20T05:15:37;99978.42;;;23.43;94.87
57024;BME280;42916;54.346;18.562;2022-08-20T05:18:05;99977.95;;;23.49;94.84
57024;BME280;42916;54.346;18.562;2022-08-20T05:20:33;99979.27;;;23.56;94.78
57024;BME280;42916;54.346;18.562;2022-08-20T05:23:01;99977.27;;;23.61;94.67
57024;BME280;42916;54.346;18.562;2022-08-20T05:25:28;99975.16;;;23.68;94.50
57024;BME280;42916;54.346;18.562;2022-08-20T05:27:58;99968.14;;;23.75;94.31
57024;BME280;42916;54.346;18.562;2022-08-20T05:30:27;99964.67;;;23.84;94.18
57024;BME280;42916;54.346;18.562;2022-08-20T05:33:03;99966.41;;;23.89;94.05
57024;BME280;42916;54.346;18.562;2022-08-20T05:35:30;99963.64;;;23.96;93.74
57024;BME280;42916;54.346;18.562;2022-08-20T05:38:00;99970.64;;;24.02;93.31
57024;BME280;42916;54.346;18.562;2022-08-20T05:40:26;99972.76;;;24.08;93.12
57024;BME280;42916;54.346;18.562;2022-08-20T05:42:53;99972.52;;;24.11;93.07
57024;BME280;42916;54.346;18.562;2022-08-20T05:45:20;99966.02;;;24.17;92.93
57024;BME280;42916;54.346;18.562;2022-08-20T05:47:46;99966.92;;;24.21;92.73
57024;BME280;42916;54.346;18.562;2022-08-20T05:50:14;99967.85;;;24.27;92.70
57024;BME280;42916;54.346;18.562;2022-08-20T05:52:41;99971.08;;;24.32;92.66
57024;BME280;42916;54.346;18.562;2022-08-20T05:55:09;99972.65;;;24.35;92.62
57024;BME280;42916;54.346;18.562;2022-08-20T05:57:39;99978.21;;;24.37;92.38
57024;BME280;42916;54.346;18.562;2022-08-20T06:00:11;99972.60;;;24.39;92.36
57024;BME280;42916;54.346;18.562;2022-08-20T06:02:38;99968.96;;;24.39;92.13
57024;BME280;42916;54.346;18.562;2022-08-20T06:05:23;99977.83;;;24.41;92.21
57024;BME280;42916;54.346;18.562;2022-08-20T06:07:52;99975.64;;;24.43;92.37
57024;BME280;42916;54.346;18.562;2022-08-20T06:10:18;99972.02;;;24.45;92.54
57024;BME280;42916;54.346;18.562;2022-08-20T06:12:44;99972.33;;;24.48;92.34
57024;BME280;42916;54.346;18.562;2022-08-20T06:15:11;99967.48;;;24.48;92.28
57024;BME280;42916;54.346;18.562;2022-08-20T06:17:37;99957.96;;;24.48;92.34
57024;BME280;42916;54.346;18.562;2022-08-20T06:20:06;99962.70;;;24.50;92.26
57024;BME280;42916;54.346;18.562;2022-08-20T06:22:33;99972.46;;;24.53;92.01
57024;BME280;42916;54.346;18.562;2022-08-20T06:25:00;99973.11;;;24.56;91.95
57024;BME280;42916;54.346;18.562;2022-08-20T06:27:27;99976.11;;;24.61;91.83
57024;BME280;42916;54.346;18.562;2022-08-20T06:29:53;99978.34;;;24.68;91.67
57024;BME280;42916;54.346;18.562;2022-08-20T06:32:21;99980.94;;;24.67;91.25
57024;BME280;42916;54.346;18.562;2022-08-20T06:34:50;99981.70;;;24.66;91.13
57024;BME280;42916;54.346;18.562;2022-08-20T06:37:18;99986.08;;;24.67;91.17
57024;BME280;42916;54.346;18.562;2022-08-20T06:39:45;99979.48;;;24.70;91.23
57024;BME280;42916;54.346;18.562;2022-08-20T06:42:11;99984.91;;;24.74;91.18
57024;BME280;42916;54.346;18.562;2022-08-20T06:44:38;99986.09;;;24.77;91.07
57024;BME280;42916;54.346;18.562;2022-08-20T06:47:05;99989.33;;;24.83;91.07
57024;BME280;42916;54.346;18.562;2022-08-20T06:49:34;99982.74;;;24.87;90.71
57024;BME280;42916;54.346;18.562;2022-08-20T06:52:03;99977.98;;;24.95;90.81
57024;BME280;42916;54.346;18.562;2022-08-20T06:54:29;99982.75;;;25.02;90.55
57024;BME280;42916;54.346;18.562;2022-08-20T06:56:55;99985.64;;;25.06;90.14
57024;BME280;42916;54.346;18.562;2022-08-20T06:59:21;99987.25;;;25.11;89.62
57024;BME280;42916;54.346;18.562;2022-08-20T07:01:47;99991.36;;;25.13;89.46
57024;BME280;42916;54.346;18.562;2022-08-20T07:04:14;99995.11;;;25.17;89.34
57024;BME280;42916;54.346;18.562;2022-08-20T07:06:41;99996.63;;;25.18;88.99
57024;BME280;42916;54.346;18.562;2022-08-20T07:09:08;99999.13;;;25.16;89.13
57024;BME280;42916;54.346;18.562;2022-08-20T07:11:34;99994.48;;;25.18;89.12
57024;BME280;42916;54.346;18.562;2022-08-20T07:14:01;99995.30;;;25.19;89.03
57024;BME280;42916;54.346;18.562;2022-08-20T07:16:30;99996.59;;;25.24;89.04
57024;BME280;42916;54.346;18.562;2022-08-20T07:18:57;100002.34;;;25.25;88.67
57024;BME280;42916;54.346;18.562;2022-08-20T07:21:23;100003.02;;;25.19;88.56
57024;BME280;42916;54.346;18.562;2022-08-20T07:23:50;100016.55;;;25.17;88.65
57024;BME280;42916;54.346;18.562;2022-08-20T07:26:18;100015.00;;;25.11;88.43
57024;BME280;42916;54.346;18.562;2022-08-20T07:28:45;100016.04;;;25.03;88.58
57024;BME280;42916;54.346;18.562;2022-08-20T07:31:11;100010.85;;;24.96;88.85
57024;BME280;42916;54.346;18.562;2022-08-20T07:33:55;100013.59;;;24.91;89.15
57024;BME280;42916;54.346;18.562;2022-08-20T07:36:21;100016.16;;;24.89;89.56
57024;BME280;42916;54.346;18.562;2022-08-20T07:38:47;100018.15;;;24.89;89.67
57024;BME280;42916;54.346;18.562;2022-08-20T07:41:15;100019.08;;;24.87;89.29
57024;BME280;42916;54.346;18.562;2022-08-20T07:43:42;100016.45;;;24.87;89.38
57024;BME280;42916;54.346;18.562;2022-08-20T07:46:12;100021.46;;;24.87;89.10
57024;BME280;42916;54.346;18.562;2022-08-20T07:48:41;100022.95;;;24.83;88.73
57024;BME280;42916;54.346;18.562;2022-08-20T07:51:12;100027.83;;;24.77;88.64
57024;BME280;42916;54.346;18.562;2022-08-20T07:53:40;100029.42;;;24.74;88.79
57024;BME280;42916;54.346;18.562;2022-08-20T07:56:09;100030.70;;;24.74;89.01
57024;BME280;42916;54.346;18.562;2022-08-20T07:58:38;100035.35;;;24.76;88.82
57024;BME280;42916;54.346;18.562;2022-08-20T08:01:06;100036.79;;;24.76;88.28
57024;BME280;42916;54.346;18.562;2022-08-20T08:03:33;100039.00;;;24.80;88.03
57024;BME280;42916;54.346;18.562;2022-08-20T08:05:59;100041.26;;;24.87;87.77
57024;BME280;42916;54.346;18.562;2022-08-20T08:08:26;100046.30;;;25.02;87.72
57024;BME280;42916;54.346;18.562;2022-08-20T08:10:59;100047.14;;;25.22;87.36
57024;BME280;42916;54.346;18.562;2022-08-20T08:13:30;100057.06;;;25.45;86.90
57024;BME280;42916;54.346;18.562;2022-08-20T08:15:59;100051.41;;;25.64;85.72
57024;BME280;42916;54.346;18.562;2022-08-20T08:18:30;100055.67;;;25.82;85.37
57024;BME280;42916;54.346;18.562;2022-08-20T08:20:59;100054.67;;;25.98;84.55
57024;BME280;42916;54.346;18.562;2022-08-20T08:23:25;100058.83;;;26.16;83.93
57024;BME280;42916;54.346;18.562;2022-08-20T08:25:51;100054.75;;;26.27;82.72
57024;BME280;42916;54.346;18.562;2022-08-20T08:28:18;100060.86;;;26.35;82.24
57024;BME280;42916;54.346;18.562;2022-08-20T08:30:46;100056.30;;;26.43;81.82
57024;BME280;42916;54.346;18.562;2022-08-20T08:33:24;100057.30;;;26.45;81.10
57024;BME280;42916;54.346;18.562;2022-08-20T08:38:23;100054.77;;;26.42;80.25
57024;BME280;42916;54.346;18.562;2022-08-20T08:40:55;100058.33;;;26.36;79.96
57024;BME280;42916;54.346;18.562;2022-08-20T08:43:23;100066.11;;;26.31;79.98
57024;BME280;42916;54.346;18.562;2022-08-20T08:46:02;100062.36;;;26.25;79.77
57024;BME280;42916;54.346;18.562;2022-08-20T08:48:36;100062.95;;;26.18;79.64
57024;BME280;42916;54.346;18.562;2022-08-20T08:51:05;100057.77;;;26.18;80.00
57024;BME280;42916;54.346;18.562;2022-08-20T08:53:39;100056.80;;;26.18;79.36
57024;BME280;42916;54.346;18.562;2022-08-20T08:56:07;100056.33;;;26.18;79.34
57024;BME280;42916;54.346;18.562;2022-08-20T08:58:34;100054.17;;;26.26;79.32
57024;BME280;42916;54.346;18.562;2022-08-20T09:01:07;100053.20;;;26.35;79.24
57024;BME280;42916;54.346;18.562;2022-08-20T09:03:35;100051.66;;;26.47;78.91
57024;BME280;42916;54.346;18.562;2022-08-20T09:06:02;100052.07;;;26.57;78.57
57024;BME280;42916;54.346;18.562;2022-08-20T09:08:43;100053.00;;;26.63;77.96
57024;BME280;42916;54.346;18.562;2022-08-20T09:11:13;100047.41;;;26.72;77.85
57024;BME280;42916;54.346;18.562;2022-08-20T09:13:40;100043.55;;;26.80;77.41
57024;BME280;42916;54.346;18.562;2022-08-20T09:16:08;100047.30;;;26.85;76.94
57024;BME280;42916;54.346;18.562;2022-08-20T09:18:34;100049.83;;;26.88;76.72
57024;BME280;42916;54.346;18.562;2022-08-20T09:21:00;100051.63;;;26.92;76.41
57024;BME280;42916;54.346;18.562;2022-08-20T09:23:26;100048.05;;;26.92;76.06
57024;BME280;42916;54.346;18.562;2022-08-20T09:25:52;100048.08;;;26.95;75.68
57024;BME280;42916;54.346;18.562;2022-08-20T09:28:18;100042.73;;;27.04;75.52
57024;BME280;42916;54.346;18.562;2022-08-20T09:30:44;100044.89;;;27.11;74.89
57024;BME280;42916;54.346;18.562;2022-08-20T09:33:10;100043.84;;;27.20;74.45
57024;BME280;42916;54.346;18.562;2022-08-20T09:35:36;100041.90;;;27.28;73.89
57024;BME280;42916;54.346;18.562;2022-08-20T09:38:03;100044.16;;;27.36;73.68
57024;BME280;42916;54.346;18.562;2022-08-20T09:40:28;100035.30;;;27.42;73.13
57024;BME280;42916;54.346;18.562;2022-08-20T09:42:54;100035.88;;;27.49;73.01
57024;BME280;42916;54.346;18.562;2022-08-20T09:45:21;100037.17;;;27.63;72.88
57024;BME280;42916;54.346;18.562;2022-08-20T09:47:47;100035.83;;;27.78;72.36
57024;BME280;42916;54.346;18.562;2022-08-20T09:50:13;100039.41;;;27.90;72.04
57024;BME280;42916;54.346;18.562;2022-08-20T09:52:45;100034.80;;;27.97;71.26
57024;BME280;42916;54.346;18.562;2022-08-20T09:55:34;100038.48;;;28.05;71.17
57024;BME280;42916;54.346;18.562;2022-08-20T09:58:02;100031.81;;;28.10;70.09
57024;BME280;42916;54.346;18.562;2022-08-20T10:00:28;100036.44;;;28.09;70.17
57024;BME280;42916;54.346;18.562;2022-08-20T10:02:54;100036.23;;;28.11;69.87
57024;BME280;42916;54.346;18.562;2022-08-20T10:05:20;100041.90;;;28.11;69.13
57024;BME280;42916;54.346;18.562;2022-08-20T10:07:46;100036.73;;;28.05;68.77
57024;BME280;42916;54.346;18.562;2022-08-20T10:10:14;100036.41;;;28.06;68.96
57024;BME280;42916;54.346;18.562;2022-08-20T10:12:40;100035.80;;;28.07;68.68
57024;BME280;42916;54.346;18.562;2022-08-20T10:15:09;100038.64;;;28.12;68.81
57024;BME280;42916;54.346;18.562;2022-08-20T10:17:39;100036.23;;;28.20;68.57
57024;BME280;42916;54.346;18.562;2022-08-20T10:20:07;100034.48;;;28.29;68.62
57024;BME280;42916;54.346;18.562;2022-08-20T10:22:34;100037.02;;;28.43;68.44
57024;BME280;42916;54.346;18.562;2022-08-20T10:25:00;100033.98;;;28.52;67.58
57024;BME280;42916;54.346;18.562;2022-08-20T10:27:26;100036.25;;;28.55;66.61
57024;BME280;42916;54.346;18.562;2022-08-20T10:29:52;100030.81;;;28.62;66.96
57024;BME280;42916;54.346;18.562;2022-08-20T10:32:18;100030.48;;;28.82;67.10
57024;BME280;42916;54.346;18.562;2022-08-20T10:34:44;100034.66;;;28.97;66.65
57024;BME280;42916;54.346;18.562;2022-08-20T10:37:20;100032.86;;;29.03;66.05
57024;BME280;42916;54.346;18.562;2022-08-20T10:39:46;100028.05;;;29.14;65.47
57024;BME280;42916;54.346;18.562;2022-08-20T10:42:13;100026.19;;;29.32;65.57
57024;BME280;42916;54.346;18.562;2022-08-20T10:44:39;100023.41;;;29.58;64.86
57024;BME280;42916;54.346;18.562;2022-08-20T10:47:31;100024.43;;;29.72;64.26
57024;BME280;42916;54.346;18.562;2022-08-20T10:49:59;100021.00;;;29.95;63.72
57024;BME280;42916;54.346;18.562;2022-08-20T10:52:26;100021.52;;;30.10;62.98
57024;BME280;42916;54.346;18.562;2022-08-20T10:54:53;100018.64;;;30.17;62.09
57024;BME280;42916;54.346;18.562;2022-08-20T10:57:23;100017.05;;;30.26;61.91
57024;BME280;42916;54.346;18.562;2022-08-20T10:59:50;100015.36;;;30.30;61.26
57024;BME280;42916;54.346;18.562;2022-08-20T11:02:17;100017.02;;;30.13;59.37
57024;BME280;42916;54.346;18.562;2022-08-20T11:04:46;100016.05;;;29.97;60.76
57024;BME280;42916;54.346;18.562;2022-08-20T11:07:48;100018.13;;;29.99;61.10
57024;BME280;42916;54.346;18.562;2022-08-20T11:10:14;100020.63;;;30.06;61.46
57024;BME280;42916;54.346;18.562;2022-08-20T11:12:40;100024.40;;;30.10;60.87
57024;BME280;42916;54.346;18.562;2022-08-20T11:15:07;100023.05;;;30.17;59.69
57024;BME280;42916;54.346;18.562;2022-08-20T11:17:38;100015.48;;;30.00;59.08
57024;BME280;42916;54.346;18.562;2022-08-20T11:20:04;100017.38;;;29.86;59.48
57024;BME280;42916;54.346;18.562;2022-08-20T11:22:33;100016.23;;;29.79;60.03
57024;BME280;42916;54.346;18.562;2022-08-20T11:24:59;100025.53;;;29.69;60.40
57024;BME280;42916;54.346;18.562;2022-08-20T11:27:31;100021.20;;;29.83;61.00
57024;BME280;42916;54.346;18.562;2022-08-20T11:29:58;100019.98;;;30.06;60.48
57024;BME280;42916;54.346;18.562;2022-08-20T11:32:24;100021.92;;;30.15;60.44
57024;BME280;42916;54.346;18.562;2022-08-20T11:34:50;100022.20;;;30.32;59.91
57024;BME280;42916;54.346;18.562;2022-08-20T11:37:18;100018.70;;;30.46;59.74
57024;BME280;42916;54.346;18.562;2022-08-20T11:39:46;100019.25;;;30.60;59.16
57024;BME280;42916;54.346;18.562;2022-08-20T11:42:12;100014.20;;;30.75;58.74
57024;BME280;42916;54.346;18.562;2022-08-20T11:44:38;100019.62;;;30.88;58.09
57024;BME280;42916;54.346;18.562;2022-08-20T11:47:05;100017.63;;;31.03;57.30
57024;BME280;42916;54.346;18.562;2022-08-20T11:49:33;100015.59;;;31.14;56.73
57024;BME280;42916;54.346;18.562;2022-08-20T11:52:00;100017.59;;;31.17;56.31
57024;BME280;42916;54.346;18.562;2022-08-20T11:54:26;100011.10;;;31.12;56.26
57024;BME280;42916;54.346;18.562;2022-08-20T11:56:57;100012.18;;;30.99;56.18
57024;BME280;42916;54.346;18.562;2022-08-20T11:59:25;100009.20;;;30.92;56.29
57024;BME280;42916;54.346;18.562;2022-08-20T12:01:51;100003.59;;;30.88;56.16
57024;BME280;42916;54.346;18.562;2022-08-20T12:04:19;99999.75;;;30.82;56.49
57024;BME280;42916;54.346;18.562;2022-08-20T12:06:45;99998.39;;;30.74;56.59
57024;BME280;42916;54.346;18.562;2022-08-20T12:09:11;99994.23;;;30.69;56.93
57024;BME280;42916;54.346;18.562;2022-08-20T12:11:37;100006.33;;;30.49;56.24
57024;BME280;42916;54.346;18.562;2022-08-20T12:14:03;100004.44;;;30.10;56.87
57024;BME280;42916;54.346;18.562;2022-08-20T12:16:29;100002.29;;;29.84;57.56
57024;BME280;42916;54.346;18.562;2022-08-20T12:18:55;100005.55;;;29.57;58.35
57024;BME280;42916;54.346;18.562;2022-08-20T12:21:21;100004.72;;;29.31;59.15
57024;BME280;42916;54.346;18.562;2022-08-20T12:23:47;100005.95;;;29.08;59.93
57024;BME280;42916;54.346;18.562;2022-08-20T12:26:13;100012.23;;;28.89;61.00
57024;BME280;42916;54.346;18.562;2022-08-20T12:28:41;100006.25;;;28.61;62.39
57024;BME280;42916;54.346;18.562;2022-08-20T12:31:07;100013.52;;;28.44;63.37
57024;BME280;42916;54.346;18.562;2022-08-20T12:33:33;100020.10;;;28.29;64.56
57024;BME280;42916;54.346;18.562;2022-08-20T12:35:59;100019.50;;;28.09;65.68
57024;BME280;42916;54.346;18.562;2022-08-20T12:38:25;100024.95;;;27.88;66.71
57024;BME280;42916;54.346;18.562;2022-08-20T12:40:51;100024.23;;;27.75;67.26
57024;BME280;42916;54.346;18.562;2022-08-20T12:43:17;100020.63;;;27.68;68.02
57024;BME280;42916;54.346;18.562;2022-08-20T12:45:42;100016.33;;;27.62;68.52
57024;BME280;42916;54.346;18.562;2022-08-20T12:48:11;100018.48;;;27.61;68.96
57024;BME280;42916;54.346;18.562;2022-08-20T12:50:40;100020.52;;;27.60;69.19
57024;BME280;42916;54.346;18.562;2022-08-20T12:53:07;100019.17;;;27.66;69.50
57024;BME280;42916;54.346;18.562;2022-08-20T12:55:34;100019.16;;;27.72;69.42
57024;BME280;42916;54.346;18.562;2022-08-20T12:58:01;100026.83;;;27.72;69.50